Poplar Corners, Mississippi
Current Conditions -  °F | °C
As of 3:54 AM on Saturday 25 Oct 2014 (Local Time) from KMEM Reporting Station
Clear Clear  
Wind Chill: 58°   Ceiling: Unl
Heat Index: 58°   Visibility: 8mi
Dew Point: 54°   Wind: 0mph
Humidity: 87%   Direction: NA
Pressure: 30.08"   Gusts: NA
Location:  34.9578°N, 90.1057°W
Report Text: KMEM 250854Z 00000KT 8SM CLR 14/12 A3008 RMK AO2 SLP183 T01440122 58001 $
Loading
Personal Weather Stations






























Interactive Weather Map
Tropical Storm Tracking
New forecast layout! Learn more

10-Day Weather Forecast

Advertisements
Track Severe Weather on mobile